sensor_id;sensor_type;location;lat;lon;timestamp;P1;durP1;ratioP1;P2;durP2;ratioP2
54517;SDS011;40423;53.176;6.002;2022-11-12T00:00:31;19.35;;;13.00;;
54517;SDS011;40423;53.176;6.002;2022-11-12T00:02:56;15.73;;;10.70;;
54517;SDS011;40423;53.176;6.002;2022-11-12T00:05:22;16.10;;;10.55;;
54517;SDS011;40423;53.176;6.002;2022-11-12T00:07:49;19.95;;;12.25;;
54517;SDS011;40423;53.176;6.002;2022-11-12T00:10:15;18.15;;;12.18;;
54517;SDS011;40423;53.176;6.002;2022-11-12T00:12:40;16.85;;;11.75;;
54517;SDS011;40423;53.176;6.002;2022-11-12T00:15:06;17.80;;;11.00;;
54517;SDS011;40423;53.176;6.002;2022-11-12T00:17:32;15.57;;;10.95;;
54517;SDS011;40423;53.176;6.002;2022-11-12T00:19:58;18.25;;;11.43;;
54517;SDS011;40423;53.176;6.002;2022-11-12T00:22:24;17.45;;;11.25;;
54517;SDS011;40423;53.176;6.002;2022-11-12T00:24:49;17.58;;;11.75;;
54517;SDS011;40423;53.176;6.002;2022-11-12T00:27:15;19.25;;;11.90;;
54517;SDS011;40423;53.176;6.002;2022-11-12T00:29:41;21.30;;;11.80;;
54517;SDS011;40423;53.176;6.002;2022-11-12T00:32:07;21.23;;;12.18;;
54517;SDS011;40423;53.176;6.002;2022-11-12T00:34:33;20.02;;;12.90;;
54517;SDS011;40423;53.176;6.002;2022-11-12T00:37:00;20.15;;;12.30;;
54517;SDS011;40423;53.176;6.002;2022-11-12T00:39:26;17.05;;;10.45;;
54517;SDS011;40423;53.176;6.002;2022-11-12T00:41:52;14.20;;;10.20;;
54517;SDS011;40423;53.176;6.002;2022-11-12T00:44:18;20.90;;;12.45;;
54517;SDS011;40423;53.176;6.002;2022-11-12T00:46:44;18.67;;;12.25;;
54517;SDS011;40423;53.176;6.002;2022-11-12T00:49:10;20.52;;;13.00;;
54517;SDS011;40423;53.176;6.002;2022-11-12T00:51:36;15.50;;;11.35;;
54517;SDS011;40423;53.176;6.002;2022-11-12T00:54:02;16.20;;;10.90;;
54517;SDS011;40423;53.176;6.002;2022-11-12T00:56:29;18.83;;;10.95;;
54517;SDS011;40423;53.176;6.002;2022-11-12T00:58:54;17.60;;;12.32;;
54517;SDS011;40423;53.176;6.002;2022-11-12T01:01:21;15.95;;;11.07;;
54517;SDS011;40423;53.176;6.002;2022-11-12T01:03:47;16.10;;;11.95;;
54517;SDS011;40423;53.176;6.002;2022-11-12T01:06:14;16.83;;;11.75;;
54517;SDS011;40423;53.176;6.002;2022-11-12T01:08:42;16.77;;;11.30;;
54517;SDS011;40423;53.176;6.002;2022-11-12T01:11:27;18.23;;;11.98;;
54517;SDS011;40423;53.176;6.002;2022-11-12T01:14:05;14.48;;;10.60;;
54517;SDS011;40423;53.176;6.002;2022-11-12T01:16:39;15.48;;;11.32;;
54517;SDS011;40423;53.176;6.002;2022-11-12T01:19:07;16.08;;;11.02;;
54517;SDS011;40423;53.176;6.002;2022-11-12T01:21:37;15.77;;;10.40;;
54517;SDS011;40423;53.176;6.002;2022-11-12T01:24:03;18.20;;;12.40;;
54517;SDS011;40423;53.176;6.002;2022-11-12T01:26:29;13.90;;;11.10;;
54517;SDS011;40423;53.176;6.002;2022-11-12T01:28:55;15.48;;;10.25;;
54517;SDS011;40423;53.176;6.002;2022-11-12T01:31:23;15.30;;;10.63;;
54517;SDS011;40423;53.176;6.002;2022-11-12T01:33:55;17.73;;;11.95;;
54517;SDS011;40423;53.176;6.002;2022-11-12T01:36:23;18.98;;;12.32;;
54517;SDS011;40423;53.176;6.002;2022-11-12T01:38:50;17.35;;;11.55;;
54517;SDS011;40423;53.176;6.002;2022-11-12T01:41:24;20.00;;;11.63;;
54517;SDS011;40423;53.176;6.002;2022-11-12T01:46:59;15.77;;;10.95;;
54517;SDS011;40423;53.176;6.002;2022-11-12T01:49:43;17.15;;;12.50;;
54517;SDS011;40423;53.176;6.002;2022-11-12T01:55:02;17.85;;;12.65;;
54517;SDS011;40423;53.176;6.002;2022-11-12T01:57:36;18.38;;;12.18;;
54517;SDS011;40423;53.176;6.002;2022-11-12T02:00:07;18.55;;;12.32;;
54517;SDS011;40423;53.176;6.002;2022-11-12T02:02:35;18.30;;;13.48;;
54517;SDS011;40423;53.176;6.002;2022-11-12T02:05:02;20.30;;;12.85;;
54517;SDS011;40423;53.176;6.002;2022-11-12T02:07:31;18.77;;;13.15;;
54517;SDS011;40423;53.176;6.002;2022-11-12T02:09:59;15.68;;;11.15;;
54517;SDS011;40423;53.176;6.002;2022-11-12T02:12:26;20.77;;;13.88;;
54517;SDS011;40423;53.176;6.002;2022-11-12T02:15:11;18.60;;;12.60;;
54517;SDS011;40423;53.176;6.002;2022-11-12T02:17:37;17.52;;;13.25;;
54517;SDS011;40423;53.176;6.002;2022-11-12T02:20:03;17.80;;;11.85;;
54517;SDS011;40423;53.176;6.002;2022-11-12T02:22:32;16.70;;;12.40;;
54517;SDS011;40423;53.176;6.002;2022-11-12T02:24:58;17.90;;;13.05;;
54517;SDS011;40423;53.176;6.002;2022-11-12T02:27:23;21.63;;;14.85;;
54517;SDS011;40423;53.176;6.002;2022-11-12T02:29:49;18.83;;;12.98;;
54517;SDS011;40423;53.176;6.002;2022-11-12T02:32:15;20.95;;;13.10;;
54517;SDS011;40423;53.176;6.002;2022-11-12T02:34:41;22.58;;;13.23;;
54517;SDS011;40423;53.176;6.002;2022-11-12T02:37:06;18.95;;;12.13;;
54517;SDS011;40423;53.176;6.002;2022-11-12T02:39:32;21.52;;;15.93;;
54517;SDS011;40423;53.176;6.002;2022-11-12T02:41:58;15.32;;;12.35;;
54517;SDS011;40423;53.176;6.002;2022-11-12T02:44:23;21.15;;;12.98;;
54517;SDS011;40423;53.176;6.002;2022-11-12T02:46:49;20.58;;;13.38;;
54517;SDS011;40423;53.176;6.002;2022-11-12T02:49:15;23.73;;;15.35;;
54517;SDS011;40423;53.176;6.002;2022-11-12T02:51:40;15.25;;;11.93;;
54517;SDS011;40423;53.176;6.002;2022-11-12T02:54:06;19.67;;;13.77;;
54517;SDS011;40423;53.176;6.002;2022-11-12T02:56:32;23.05;;;15.90;;
54517;SDS011;40423;53.176;6.002;2022-11-12T02:58:59;15.45;;;11.65;;
54517;SDS011;40423;53.176;6.002;2022-11-12T03:01:25;15.55;;;11.98;;
54517;SDS011;40423;53.176;6.002;2022-11-12T03:03:51;21.25;;;13.65;;
54517;SDS011;40423;53.176;6.002;2022-11-12T03:06:16;23.55;;;15.15;;
54517;SDS011;40423;53.176;6.002;2022-11-12T03:08:42;28.02;;;18.27;;
54517;SDS011;40423;53.176;6.002;2022-11-12T03:11:13;21.17;;;14.57;;
54517;SDS011;40423;53.176;6.002;2022-11-12T03:13:40;15.52;;;11.43;;
54517;SDS011;40423;53.176;6.002;2022-11-12T03:16:06;18.23;;;13.32;;
54517;SDS011;40423;53.176;6.002;2022-11-12T03:18:32;18.60;;;13.65;;
54517;SDS011;40423;53.176;6.002;2022-11-12T03:20:58;19.55;;;13.57;;
54517;SDS011;40423;53.176;6.002;2022-11-12T03:23:24;18.83;;;13.40;;
54517;SDS011;40423;53.176;6.002;2022-11-12T03:25:51;23.63;;;16.48;;
54517;SDS011;40423;53.176;6.002;2022-11-12T03:28:16;23.30;;;15.70;;
54517;SDS011;40423;53.176;6.002;2022-11-12T03:30:42;19.15;;;12.07;;
54517;SDS011;40423;53.176;6.002;2022-11-12T03:33:10;25.83;;;17.02;;
54517;SDS011;40423;53.176;6.002;2022-11-12T03:35:37;19.00;;;14.52;;
54517;SDS011;40423;53.176;6.002;2022-11-12T03:38:03;24.23;;;15.35;;
54517;SDS011;40423;53.176;6.002;2022-11-12T03:40:30;23.17;;;16.05;;
54517;SDS011;40423;53.176;6.002;2022-11-12T03:42:56;20.35;;;15.52;;
54517;SDS011;40423;53.176;6.002;2022-11-12T03:45:23;23.05;;;15.73;;
54517;SDS011;40423;53.176;6.002;2022-11-12T03:47:51;18.73;;;14.63;;
54517;SDS011;40423;53.176;6.002;2022-11-12T03:50:19;19.25;;;14.75;;
54517;SDS011;40423;53.176;6.002;2022-11-12T03:52:46;22.08;;;15.60;;
54517;SDS011;40423;53.176;6.002;2022-11-12T03:55:17;23.13;;;16.25;;
54517;SDS011;40423;53.176;6.002;2022-11-12T03:57:45;22.52;;;15.57;;
54517;SDS011;40423;53.176;6.002;2022-11-12T04:00:12;23.88;;;14.75;;
54517;SDS011;40423;53.176;6.002;2022-11-12T04:02:38;25.48;;;16.90;;
54517;SDS011;40423;53.176;6.002;2022-11-12T04:05:04;21.92;;;13.68;;
54517;SDS011;40423;53.176;6.002;2022-11-12T04:07:59;26.75;;;15.65;;
54517;SDS011;40423;53.176;6.002;2022-11-12T04:10:44;28.77;;;17.20;;
54517;SDS011;40423;53.176;6.002;2022-11-12T04:13:10;25.20;;;15.40;;
54517;SDS011;40423;53.176;6.002;2022-11-12T04:18:44;30.85;;;17.95;;
54517;SDS011;40423;53.176;6.002;2022-11-12T04:21:31;45.25;;;19.45;;
54517;SDS011;40423;53.176;6.002;2022-11-12T04:27:19;39.67;;;17.83;;
54517;SDS011;40423;53.176;6.002;2022-11-12T04:29:53;49.53;;;19.67;;
54517;SDS011;40423;53.176;6.002;2022-11-12T04:32:48;36.10;;;18.23;;
54517;SDS011;40423;53.176;6.002;2022-11-12T04:35:14;46.17;;;19.70;;
54517;SDS011;40423;53.176;6.002;2022-11-12T04:37:41;45.10;;;18.40;;
54517;SDS011;40423;53.176;6.002;2022-11-12T04:40:13;39.20;;;18.23;;
54517;SDS011;40423;53.176;6.002;2022-11-12T04:43:09;59.45;;;23.65;;
54517;SDS011;40423;53.176;6.002;2022-11-12T04:45:59;66.53;;;24.73;;
54517;SDS011;40423;53.176;6.002;2022-11-12T04:48:25;63.25;;;25.13;;
54517;SDS011;40423;53.176;6.002;2022-11-12T04:50:52;61.53;;;24.40;;
54517;SDS011;40423;53.176;6.002;2022-11-12T04:53:21;56.72;;;23.05;;
54517;SDS011;40423;53.176;6.002;2022-11-12T04:55:51;43.65;;;20.05;;
54517;SDS011;40423;53.176;6.002;2022-11-12T04:58:17;46.22;;;22.70;;
54517;SDS011;40423;53.176;6.002;2022-11-12T05:00:44;49.13;;;22.90;;
54517;SDS011;40423;53.176;6.002;2022-11-12T05:03:09;46.53;;;21.48;;
54517;SDS011;40423;53.176;6.002;2022-11-12T05:05:35;44.55;;;21.67;;
54517;SDS011;40423;53.176;6.002;2022-11-12T05:08:01;54.08;;;22.63;;
54517;SDS011;40423;53.176;6.002;2022-11-12T05:10:27;51.42;;;23.88;;
54517;SDS011;40423;53.176;6.002;2022-11-12T05:12:54;36.05;;;19.17;;
54517;SDS011;40423;53.176;6.002;2022-11-12T05:15:20;40.70;;;20.67;;
54517;SDS011;40423;53.176;6.002;2022-11-12T05:17:45;48.22;;;22.15;;
54517;SDS011;40423;53.176;6.002;2022-11-12T05:20:11;41.90;;;22.77;;
54517;SDS011;40423;53.176;6.002;2022-11-12T05:22:38;39.83;;;20.40;;
54517;SDS011;40423;53.176;6.002;2022-11-12T05:25:04;63.15;;;25.25;;
54517;SDS011;40423;53.176;6.002;2022-11-12T05:27:31;37.22;;;20.95;;
54517;SDS011;40423;53.176;6.002;2022-11-12T05:29:56;60.13;;;24.27;;
54517;SDS011;40423;53.176;6.002;2022-11-12T05:32:22;93.03;;;26.98;;
54517;SDS011;40423;53.176;6.002;2022-11-12T05:34:47;69.65;;;24.10;;
54517;SDS011;40423;53.176;6.002;2022-11-12T05:37:13;51.25;;;23.92;;
54517;SDS011;40423;53.176;6.002;2022-11-12T05:39:39;75.13;;;27.05;;
54517;SDS011;40423;53.176;6.002;2022-11-12T05:42:05;46.63;;;23.27;;
54517;SDS011;40423;53.176;6.002;2022-11-12T05:44:31;81.32;;;26.95;;
54517;SDS011;40423;53.176;6.002;2022-11-12T05:46:57;105.00;;;28.23;;
54517;SDS011;40423;53.176;6.002;2022-11-12T05:49:23;55.28;;;25.40;;
54517;SDS011;40423;53.176;6.002;2022-11-12T05:51:49;62.80;;;24.80;;
54517;SDS011;40423;53.176;6.002;2022-11-12T05:54:15;61.38;;;25.75;;
54517;SDS011;40423;53.176;6.002;2022-11-12T05:56:42;47.60;;;22.73;;
54517;SDS011;40423;53.176;6.002;2022-11-12T05:59:08;59.63;;;23.83;;
54517;SDS011;40423;53.176;6.002;2022-11-12T06:01:35;49.22;;;24.05;;
54517;SDS011;40423;53.176;6.002;2022-11-12T06:04:08;55.45;;;25.20;;
54517;SDS011;40423;53.176;6.002;2022-11-12T06:06:35;53.75;;;23.40;;
54517;SDS011;40423;53.176;6.002;2022-11-12T06:09:02;54.22;;;25.20;;
54517;SDS011;40423;53.176;6.002;2022-11-12T06:11:28;64.95;;;25.67;;
54517;SDS011;40423;53.176;6.002;2022-11-12T06:13:54;68.97;;;28.25;;
54517;SDS011;40423;53.176;6.002;2022-11-12T06:16:20;57.25;;;25.52;;
54517;SDS011;40423;53.176;6.002;2022-11-12T06:18:45;47.35;;;24.08;;
54517;SDS011;40423;53.176;6.002;2022-11-12T06:21:11;50.80;;;24.45;;
54517;SDS011;40423;53.176;6.002;2022-11-12T06:23:55;59.78;;;27.00;;
54517;SDS011;40423;53.176;6.002;2022-11-12T06:26:23;52.97;;;26.58;;
54517;SDS011;40423;53.176;6.002;2022-11-12T06:28:51;70.32;;;29.27;;
54517;SDS011;40423;53.176;6.002;2022-11-12T06:31:17;74.55;;;29.35;;
54517;SDS011;40423;53.176;6.002;2022-11-12T06:33:44;81.07;;;28.67;;
54517;SDS011;40423;53.176;6.002;2022-11-12T06:36:11;51.58;;;24.75;;
54517;SDS011;40423;53.176;6.002;2022-11-12T06:38:38;71.10;;;29.38;;
54517;SDS011;40423;53.176;6.002;2022-11-12T06:41:05;88.75;;;31.52;;
54517;SDS011;40423;53.176;6.002;2022-11-12T06:43:33;90.68;;;31.40;;
54517;SDS011;40423;53.176;6.002;2022-11-12T06:46:00;139.10;;;32.85;;
54517;SDS011;40423;53.176;6.002;2022-11-12T06:48:30;101.53;;;31.58;;
54517;SDS011;40423;53.176;6.002;2022-11-12T06:50:57;98.15;;;32.03;;
54517;SDS011;40423;53.176;6.002;2022-11-12T06:53:30;65.70;;;29.33;;
54517;SDS011;40423;53.176;6.002;2022-11-12T06:56:00;133.77;;;34.13;;
54517;SDS011;40423;53.176;6.002;2022-11-12T06:58:26;81.55;;;33.20;;
54517;SDS011;40423;53.176;6.002;2022-11-12T07:00:52;126.65;;;36.42;;
54517;SDS011;40423;53.176;6.002;2022-11-12T07:03:18;98.97;;;32.80;;
54517;SDS011;40423;53.176;6.002;2022-11-12T07:05:43;84.90;;;32.75;;
54517;SDS011;40423;53.176;6.002;2022-11-12T07:08:09;108.72;;;34.00;;
54517;SDS011;40423;53.176;6.002;2022-11-12T07:10:35;86.18;;;31.65;;
54517;SDS011;40423;53.176;6.002;2022-11-12T07:13:01;65.43;;;32.05;;
54517;SDS011;40423;53.176;6.002;2022-11-12T07:15:26;74.95;;;31.55;;
54517;SDS011;40423;53.176;6.002;2022-11-12T07:17:52;92.95;;;33.75;;
54517;SDS011;40423;53.176;6.002;2022-11-12T07:20:18;90.53;;;31.42;;
54517;SDS011;40423;53.176;6.002;2022-11-12T07:22:43;77.13;;;30.58;;
54517;SDS011;40423;53.176;6.002;2022-11-12T07:25:09;84.63;;;31.83;;
54517;SDS011;40423;53.176;6.002;2022-11-12T07:27:35;75.63;;;29.98;;
54517;SDS011;40423;53.176;6.002;2022-11-12T07:30:00;93.85;;;31.67;;
54517;SDS011;40423;53.176;6.002;2022-11-12T07:32:26;73.07;;;29.27;;
54517;SDS011;40423;53.176;6.002;2022-11-12T07:34:52;78.47;;;28.27;;
54517;SDS011;40423;53.176;6.002;2022-11-12T07:37:18;45.83;;;23.77;;
54517;SDS011;40423;53.176;6.002;2022-11-12T07:39:43;44.17;;;25.15;;
54517;SDS011;40423;53.176;6.002;2022-11-12T07:42:09;69.50;;;29.98;;
54517;SDS011;40423;53.176;6.002;2022-11-12T07:44:35;57.80;;;27.55;;
54517;SDS011;40423;53.176;6.002;2022-11-12T07:47:01;75.68;;;33.45;;
54517;SDS011;40423;53.176;6.002;2022-11-12T07:49:26;59.15;;;25.90;;
54517;SDS011;40423;53.176;6.002;2022-11-12T07:51:52;61.00;;;29.35;;
54517;SDS011;40423;53.176;6.002;2022-11-12T07:54:18;78.57;;;31.77;;
54517;SDS011;40423;53.176;6.002;2022-11-12T07:56:43;60.22;;;27.73;;
54517;SDS011;40423;53.176;6.002;2022-11-12T07:59:09;75.75;;;31.30;;
54517;SDS011;40423;53.176;6.002;2022-11-12T08:01:36;63.40;;;26.08;;
54517;SDS011;40423;53.176;6.002;2022-11-12T08:04:04;81.88;;;34.42;;
54517;SDS011;40423;53.176;6.002;2022-11-12T08:06:32;54.00;;;28.58;;
54517;SDS011;40423;53.176;6.002;2022-11-12T08:08:58;62.85;;;31.42;;
54517;SDS011;40423;53.176;6.002;2022-11-12T08:11:25;59.13;;;29.90;;
54517;SDS011;40423;53.176;6.002;2022-11-12T08:13:51;59.28;;;31.30;;
54517;SDS011;40423;53.176;6.002;2022-11-12T08:16:17;58.42;;;30.00;;
54517;SDS011;40423;53.176;6.002;2022-11-12T08:18:43;67.20;;;30.15;;
54517;SDS011;40423;53.176;6.002;2022-11-12T08:21:13;47.03;;;26.77;;
54517;SDS011;40423;53.176;6.002;2022-11-12T08:23:40;58.35;;;28.45;;
54517;SDS011;40423;53.176;6.002;2022-11-12T08:26:06;51.67;;;25.95;;
54517;SDS011;40423;53.176;6.002;2022-11-12T08:28:35;62.17;;;28.23;;
54517;SDS011;40423;53.176;6.002;2022-11-12T08:31:07;55.58;;;26.88;;
54517;SDS011;40423;53.176;6.002;2022-11-12T08:33:34;43.28;;;24.85;;
54517;SDS011;40423;53.176;6.002;2022-11-12T08:36:07;43.72;;;24.60;;
54517;SDS011;40423;53.176;6.002;2022-11-12T08:38:34;54.78;;;25.35;;
54517;SDS011;40423;53.176;6.002;2022-11-12T08:41:01;53.53;;;24.00;;
54517;SDS011;40423;53.176;6.002;2022-11-12T08:43:28;45.42;;;24.95;;
54517;SDS011;40423;53.176;6.002;2022-11-12T08:45:56;42.33;;;23.15;;
54517;SDS011;40423;53.176;6.002;2022-11-12T08:48:22;49.50;;;25.30;;
54517;SDS011;40423;53.176;6.002;2022-11-12T08:50:48;57.55;;;25.42;;
54517;SDS011;40423;53.176;6.002;2022-11-12T08:53:14;43.83;;;25.40;;
54517;SDS011;40423;53.176;6.002;2022-11-12T08:55:40;50.03;;;24.85;;
54517;SDS011;40423;53.176;6.002;2022-11-12T08:58:06;54.70;;;25.23;;
54517;SDS011;40423;53.176;6.002;2022-11-12T09:00:33;36.47;;;22.90;;
54517;SDS011;40423;53.176;6.002;2022-11-12T09:03:00;52.88;;;25.40;;
54517;SDS011;40423;53.176;6.002;2022-11-12T09:05:27;46.97;;;25.15;;
54517;SDS011;40423;53.176;6.002;2022-11-12T09:07:57;39.80;;;22.38;;
54517;SDS011;40423;53.176;6.002;2022-11-12T09:10:33;39.85;;;22.75;;
54517;SDS011;40423;53.176;6.002;2022-11-12T09:12:59;42.90;;;24.17;;
54517;SDS011;40423;53.176;6.002;2022-11-12T09:15:25;41.85;;;23.05;;
54517;SDS011;40423;53.176;6.002;2022-11-12T09:17:55;49.53;;;26.00;;
54517;SDS011;40423;53.176;6.002;2022-11-12T09:20:22;41.22;;;22.38;;
54517;SDS011;40423;53.176;6.002;2022-11-12T09:22:49;59.72;;;24.85;;
54517;SDS011;40423;53.176;6.002;2022-11-12T09:25:15;53.50;;;25.27;;
54517;SDS011;40423;53.176;6.002;2022-11-12T09:27:40;56.90;;;26.80;;
54517;SDS011;40423;53.176;6.002;2022-11-12T09:30:06;67.80;;;30.23;;
54517;SDS011;40423;53.176;6.002;2022-11-12T09:32:32;43.85;;;24.00;;
54517;SDS011;40423;53.176;6.002;2022-11-12T09:34:58;52.42;;;26.80;;
54517;SDS011;40423;53.176;6.002;2022-11-12T09:37:24;50.67;;;28.67;;
54517;SDS011;40423;53.176;6.002;2022-11-12T09:39:50;73.75;;;32.38;;
54517;SDS011;40423;53.176;6.002;2022-11-12T09:42:16;61.70;;;30.75;;
54517;SDS011;40423;53.176;6.002;2022-11-12T09:44:46;82.82;;;34.13;;
54517;SDS011;40423;53.176;6.002;2022-11-12T09:47:46;59.75;;;30.48;;
54517;SDS011;40423;53.176;6.002;2022-11-12T09:50:32;64.38;;;31.55;;
54517;SDS011;40423;53.176;6.002;2022-11-12T09:53:25;52.75;;;28.52;;
54517;SDS011;40423;53.176;6.002;2022-11-12T09:55:50;96.18;;;35.78;;
54517;SDS011;40423;53.176;6.002;2022-11-12T09:58:17;72.18;;;33.38;;
54517;SDS011;40423;53.176;6.002;2022-11-12T10:00:54;71.47;;;32.42;;
54517;SDS011;40423;53.176;6.002;2022-11-12T10:06:22;72.93;;;32.78;;
54517;SDS011;40423;53.176;6.002;2022-11-12T10:14:45;80.45;;;37.20;;
54517;SDS011;40423;53.176;6.002;2022-11-12T10:22:40;73.55;;;36.05;;
54517;SDS011;40423;53.176;6.002;2022-11-12T10:25:19;75.57;;;37.00;;
54517;SDS011;40423;53.176;6.002;2022-11-12T10:27:45;70.88;;;36.63;;
54517;SDS011;40423;53.176;6.002;2022-11-12T10:30:16;73.50;;;37.88;;
54517;SDS011;40423;53.176;6.002;2022-11-12T10:32:44;71.55;;;35.78;;
54517;SDS011;40423;53.176;6.002;2022-11-12T10:35:13;78.93;;;37.15;;
54517;SDS011;40423;53.176;6.002;2022-11-12T10:42:58;85.72;;;41.05;;
54517;SDS011;40423;53.176;6.002;2022-11-12T10:45:44;87.50;;;39.00;;
54517;SDS011;40423;53.176;6.002;2022-11-12T10:48:24;88.40;;;41.72;;
54517;SDS011;40423;53.176;6.002;2022-11-12T10:50:52;84.68;;;40.78;;
54517;SDS011;40423;53.176;6.002;2022-11-12T11:01:38;79.97;;;40.53;;
54517;SDS011;40423;53.176;6.002;2022-11-12T11:04:03;80.53;;;38.00;;
54517;SDS011;40423;53.176;6.002;2022-11-12T11:06:39;91.50;;;43.17;;
54517;SDS011;40423;53.176;6.002;2022-11-12T11:11:37;87.00;;;43.00;;
54517;SDS011;40423;53.176;6.002;2022-11-12T11:14:23;87.00;;;43.28;;
54517;SDS011;40423;53.176;6.002;2022-11-12T11:16:52;95.68;;;46.78;;
54517;SDS011;40423;53.176;6.002;2022-11-12T11:19:35;80.07;;;40.47;;
54517;SDS011;40423;53.176;6.002;2022-11-12T11:22:08;80.03;;;40.08;;
54517;SDS011;40423;53.176;6.002;2022-11-12T11:25:11;94.85;;;42.92;;
54517;SDS011;40423;53.176;6.002;2022-11-12T11:30:31;93.20;;;42.70;;
54517;SDS011;40423;53.176;6.002;2022-11-12T11:38:57;104.75;;;44.90;;
54517;SDS011;40423;53.176;6.002;2022-11-12T11:41:42;89.40;;;42.70;;
54517;SDS011;40423;53.176;6.002;2022-11-12T11:55:54;81.47;;;42.60;;
54517;SDS011;40423;53.176;6.002;2022-11-12T12:07:23;83.80;;;42.80;;
54517;SDS011;40423;53.176;6.002;2022-11-12T12:15:07;86.15;;;44.40;;
54517;SDS011;40423;53.176;6.002;2022-11-12T12:23:27;86.00;;;45.63;;
54517;SDS011;40423;53.176;6.002;2022-11-12T12:25:59;93.22;;;48.47;;
54517;SDS011;40423;53.176;6.002;2022-11-12T12:31:06;88.28;;;47.97;;
54517;SDS011;40423;53.176;6.002;2022-11-12T12:33:43;76.55;;;47.20;;
54517;SDS011;40423;53.176;6.002;2022-11-12T12:36:16;75.90;;;44.40;;
54517;SDS011;40423;53.176;6.002;2022-11-12T12:42:00;69.18;;;44.88;;
54517;SDS011;40423;53.176;6.002;2022-11-12T12:44:37;75.63;;;46.45;;
54517;SDS011;40423;53.176;6.002;2022-11-12T12:47:27;73.97;;;43.75;;
54517;SDS011;40423;53.176;6.002;2022-11-12T12:49:56;68.18;;;39.97;;
54517;SDS011;40423;53.176;6.002;2022-11-12T12:52:24;80.57;;;47.22;;
54517;SDS011;40423;53.176;6.002;2022-11-12T12:57:33;77.53;;;45.20;;
54517;SDS011;40423;53.176;6.002;2022-11-12T13:02:54;87.70;;;48.50;;
54517;SDS011;40423;53.176;6.002;2022-11-12T13:05:29;67.65;;;39.05;;
54517;SDS011;40423;53.176;6.002;2022-11-12T13:08:01;73.70;;;43.47;;
54517;SDS011;40423;53.176;6.002;2022-11-12T13:10:44;75.72;;;46.05;;
54517;SDS011;40423;53.176;6.002;2022-11-12T13:23:54;60.05;;;37.78;;
54517;SDS011;40423;53.176;6.002;2022-11-12T13:37:45;51.38;;;37.22;;
54517;SDS011;40423;53.176;6.002;2022-11-12T13:40:17;53.75;;;35.85;;
54517;SDS011;40423;53.176;6.002;2022-11-12T13:42:58;51.05;;;34.53;;
54517;SDS011;40423;53.176;6.002;2022-11-12T13:45:27;50.58;;;33.90;;
54517;SDS011;40423;53.176;6.002;2022-11-12T13:47:53;55.47;;;36.47;;
54517;SDS011;40423;53.176;6.002;2022-11-12T13:50:20;44.58;;;31.30;;
54517;SDS011;40423;53.176;6.002;2022-11-12T13:52:47;49.72;;;33.00;;
54517;SDS011;40423;53.176;6.002;2022-11-12T13:55:15;48.78;;;32.70;;
54517;SDS011;40423;53.176;6.002;2022-11-12T13:57:52;63.97;;;42.00;;
54517;SDS011;40423;53.176;6.002;2022-11-12T14:00:26;55.33;;;36.67;;
54517;SDS011;40423;53.176;6.002;2022-11-12T14:02:59;50.30;;;34.95;;
54517;SDS011;40423;53.176;6.002;2022-11-12T14:05:30;54.22;;;36.28;;
54517;SDS011;40423;53.176;6.002;2022-11-12T14:08:05;50.92;;;35.63;;
54517;SDS011;40423;53.176;6.002;2022-11-12T14:19:25;51.25;;;32.42;;
54517;SDS011;40423;53.176;6.002;2022-11-12T14:24:40;43.60;;;30.83;;
54517;SDS011;40423;53.176;6.002;2022-11-12T14:30:19;40.05;;;29.20;;
54517;SDS011;40423;53.176;6.002;2022-11-12T14:32:53;43.42;;;30.67;;
54517;SDS011;40423;53.176;6.002;2022-11-12T14:38:03;41.80;;;29.80;;
54517;SDS011;40423;53.176;6.002;2022-11-12T14:40:49;41.10;;;29.50;;
54517;SDS011;40423;53.176;6.002;2022-11-12T14:43:18;47.92;;;32.58;;
54517;SDS011;40423;53.176;6.002;2022-11-12T14:45:50;53.17;;;34.25;;
54517;SDS011;40423;53.176;6.002;2022-11-12T14:48:17;48.40;;;32.55;;
54517;SDS011;40423;53.176;6.002;2022-11-12T14:50:44;39.65;;;29.65;;
54517;SDS011;40423;53.176;6.002;2022-11-12T14:53:14;48.05;;;33.28;;
54517;SDS011;40423;53.176;6.002;2022-11-12T14:55:47;43.22;;;31.65;;
54517;SDS011;40423;53.176;6.002;2022-11-12T14:58:17;48.95;;;33.33;;
54517;SDS011;40423;53.176;6.002;2022-11-12T15:00:48;44.72;;;31.05;;
54517;SDS011;40423;53.176;6.002;2022-11-12T15:03:17;40.03;;;29.45;;
54517;SDS011;40423;53.176;6.002;2022-11-12T15:08:28;40.92;;;28.55;;
54517;SDS011;40423;53.176;6.002;2022-11-12T15:13:48;39.42;;;27.58;;
54517;SDS011;40423;53.176;6.002;2022-11-12T15:16:21;40.08;;;29.52;;
54517;SDS011;40423;53.176;6.002;2022-11-12T15:19:22;39.70;;;29.63;;
54517;SDS011;40423;53.176;6.002;2022-11-12T15:24:25;40.45;;;29.75;;
54517;SDS011;40423;53.176;6.002;2022-11-12T15:26:54;40.70;;;29.42;;
54517;SDS011;40423;53.176;6.002;2022-11-12T15:29:25;37.92;;;27.23;;
54517;SDS011;40423;53.176;6.002;2022-11-12T15:32:00;37.25;;;27.40;;
54517;SDS011;40423;53.176;6.002;2022-11-12T15:34:46;39.08;;;28.65;;
54517;SDS011;40423;53.176;6.002;2022-11-12T15:39:43;37.70;;;26.88;;
54517;SDS011;40423;53.176;6.002;2022-11-12T15:45:08;35.28;;;23.60;;
54517;SDS011;40423;53.176;6.002;2022-11-12T15:47:38;38.13;;;27.20;;
54517;SDS011;40423;53.176;6.002;2022-11-12T15:52:49;35.67;;;26.85;;
54517;SDS011;40423;53.176;6.002;2022-11-12T15:55:15;37.75;;;27.45;;
54517;SDS011;40423;53.176;6.002;2022-11-12T15:57:46;40.42;;;29.17;;
54517;SDS011;40423;53.176;6.002;2022-11-12T16:00:16;37.85;;;28.88;;
54517;SDS011;40423;53.176;6.002;2022-11-12T16:02:56;49.60;;;33.42;;
54517;SDS011;40423;53.176;6.002;2022-11-12T16:05:43;40.58;;;29.63;;
54517;SDS011;40423;53.176;6.002;2022-11-12T16:08:09;34.00;;;26.48;;
54517;SDS011;40423;53.176;6.002;2022-11-12T16:10:36;42.47;;;28.75;;
54517;SDS011;40423;53.176;6.002;2022-11-12T16:13:06;38.13;;;27.75;;
54517;SDS011;40423;53.176;6.002;2022-11-12T16:15:38;37.78;;;27.58;;
54517;SDS011;40423;53.176;6.002;2022-11-12T16:18:03;56.60;;;36.25;;
54517;SDS011;40423;53.176;6.002;2022-11-12T16:20:30;51.25;;;35.97;;
54517;SDS011;40423;53.176;6.002;2022-11-12T16:22:58;40.85;;;29.85;;
54517;SDS011;40423;53.176;6.002;2022-11-12T16:25:26;51.95;;;34.75;;
54517;SDS011;40423;53.176;6.002;2022-11-12T16:27:54;45.38;;;33.38;;
54517;SDS011;40423;53.176;6.002;2022-11-12T16:30:25;43.53;;;30.13;;
54517;SDS011;40423;53.176;6.002;2022-11-12T16:32:56;49.95;;;36.30;;
54517;SDS011;40423;53.176;6.002;2022-11-12T16:35:23;39.47;;;29.55;;
54517;SDS011;40423;53.176;6.002;2022-11-12T16:37:51;32.80;;;24.42;;
54517;SDS011;40423;53.176;6.002;2022-11-12T16:40:18;50.30;;;35.95;;
54517;SDS011;40423;53.176;6.002;2022-11-12T16:42:47;45.03;;;31.02;;
54517;SDS011;40423;53.176;6.002;2022-11-12T16:45:14;52.45;;;37.47;;
54517;SDS011;40423;53.176;6.002;2022-11-12T16:47:44;65.30;;;40.15;;
54517;SDS011;40423;53.176;6.002;2022-11-12T16:50:16;69.00;;;43.55;;
54517;SDS011;40423;53.176;6.002;2022-11-12T16:52:44;68.85;;;43.45;;
54517;SDS011;40423;53.176;6.002;2022-11-12T16:55:10;40.75;;;30.85;;
54517;SDS011;40423;53.176;6.002;2022-11-12T16:57:36;50.05;;;35.65;;
54517;SDS011;40423;53.176;6.002;2022-11-12T17:00:03;60.63;;;39.80;;
54517;SDS011;40423;53.176;6.002;2022-11-12T17:02:29;61.13;;;40.40;;